Disclaimer

Please do not use the information listed here in-flight or in-navigation, as they are not provided to us by the airports but are provided by volunteers, so they might be outdated.

Search


Regions


Airport information page

Radio informations:
CUERNAVACA TWR - 118.35 MHz
TOLUCA APP - 128.9 MHz

Airport informations:
Latitude: 18° 50' 05.15" N
Longitude: 099° 15' 40.68" W
Elevation: 4277 feet - 1304 meters
Operating hours: Remarks
Operating agency: Civil government, landing fees and diplomatic clearance may be required
Timezone: UTC-6(-5DT) - First Sunday in April to the last Saturday in October
Fuel: Unknown fuel type or whether there is any fuel.

Runway information:
02/20 - 9439 x 148 feet< - >2877 x 45 meters

Recent METARs:
MMCB 131410Z RTD 00000KT 8SM FEW015 BKN025 BKN080 20/16 A3018 RMK 8/870 HZY
MMCB 131450Z 00000KT 8SM FEW015 SCT025 SCT080 22/15 A3019 RMK 8/870 HZY

Airport on the map: